sensor_id;sensor_type;location;lat;lon;timestamp;P1;durP1;ratioP1;P2;durP2;ratioP2
44694;SDS011;32845;59.422;17.930;2024-03-25T00:03:08;2.25;;;0.90;;
44694;SDS011;32845;59.422;17.930;2024-03-25T00:07:38;6.53;;;1.63;;
44694;SDS011;32845;59.422;17.930;2024-03-25T00:12:09;4.47;;;1.23;;
44694;SDS011;32845;59.422;17.930;2024-03-25T00:16:44;2.92;;;1.23;;
44694;SDS011;32845;59.422;17.930;2024-03-25T00:21:15;5.80;;;1.42;;
44694;SDS011;32845;59.422;17.930;2024-03-25T00:25:45;2.33;;;0.90;;
44694;SDS011;32845;59.422;17.930;2024-03-25T00:30:16;2.40;;;1.00;;
44694;SDS011;32845;59.422;17.930;2024-03-25T00:34:47;6.82;;;1.10;;
44694;SDS011;32845;59.422;17.930;2024-03-25T00:39:17;9.27;;;1.15;;
44694;SDS011;32845;59.422;17.930;2024-03-25T00:43:53;4.40;;;1.38;;
44694;SDS011;32845;59.422;17.930;2024-03-25T00:48:24;9.38;;;1.35;;
44694;SDS011;32845;59.422;17.930;2024-03-25T00:52:54;3.25;;;1.00;;
44694;SDS011;32845;59.422;17.930;2024-03-25T00:57:25;3.00;;;1.02;;
44694;SDS011;32845;59.422;17.930;2024-03-25T01:01:55;2.00;;;1.00;;
44694;SDS011;32845;59.422;17.930;2024-03-25T01:06:27;1.85;;;0.93;;
44694;SDS011;32845;59.422;17.930;2024-03-25T01:10:58;2.78;;;1.20;;
44694;SDS011;32845;59.422;17.930;2024-03-25T01:15:29;1.50;;;0.98;;
44694;SDS011;32845;59.422;17.930;2024-03-25T01:19:59;3.53;;;1.17;;
44694;SDS011;32845;59.422;17.930;2024-03-25T01:24:30;2.13;;;1.02;;
44694;SDS011;32845;59.422;17.930;2024-03-25T01:29:00;1.35;;;0.88;;
44694;SDS011;32845;59.422;17.930;2024-03-25T01:33:31;5.20;;;0.85;;
44694;SDS011;32845;59.422;17.930;2024-03-25T01:38:02;1.35;;;0.90;;
44694;SDS011;32845;59.422;17.930;2024-03-25T01:42:33;3.03;;;1.63;;
44694;SDS011;32845;59.422;17.930;2024-03-25T01:47:04;2.08;;;0.85;;
44694;SDS011;32845;59.422;17.930;2024-03-25T01:51:34;3.03;;;0.90;;
44694;SDS011;32845;59.422;17.930;2024-03-25T01:56:06;3.03;;;1.10;;
44694;SDS011;32845;59.422;17.930;2024-03-25T02:00:38;3.92;;;0.90;;
44694;SDS011;32845;59.422;17.930;2024-03-25T02:05:09;1.52;;;0.70;;
44694;SDS011;32845;59.422;17.930;2024-03-25T02:09:47;4.30;;;1.00;;
44694;SDS011;32845;59.422;17.930;2024-03-25T02:14:18;1.25;;;0.90;;
44694;SDS011;32845;59.422;17.930;2024-03-25T02:18:50;4.43;;;1.10;;
44694;SDS011;32845;59.422;17.930;2024-03-25T02:23:21;2.15;;;1.05;;
44694;SDS011;32845;59.422;17.930;2024-03-25T02:27:51;2.60;;;0.90;;
44694;SDS011;32845;59.422;17.930;2024-03-25T02:32:22;2.38;;;1.00;;
44694;SDS011;32845;59.422;17.930;2024-03-25T02:36:52;1.00;;;0.88;;
44694;SDS011;32845;59.422;17.930;2024-03-25T02:41:24;1.30;;;0.90;;
44694;SDS011;32845;59.422;17.930;2024-03-25T02:45:54;3.00;;;1.10;;
44694;SDS011;32845;59.422;17.930;2024-03-25T02:50:25;2.25;;;0.82;;
44694;SDS011;32845;59.422;17.930;2024-03-25T02:54:56;6.50;;;1.60;;
44694;SDS011;32845;59.422;17.930;2024-03-25T02:59:26;2.42;;;1.20;;
44694;SDS011;32845;59.422;17.930;2024-03-25T03:03:57;2.33;;;0.93;;
44694;SDS011;32845;59.422;17.930;2024-03-25T03:08:27;2.20;;;1.00;;
44694;SDS011;32845;59.422;17.930;2024-03-25T03:12:58;5.22;;;0.95;;
44694;SDS011;32845;59.422;17.930;2024-03-25T03:17:29;1.63;;;0.88;;
44694;SDS011;32845;59.422;17.930;2024-03-25T03:21:59;1.75;;;1.00;;
44694;SDS011;32845;59.422;17.930;2024-03-25T03:26:30;2.72;;;1.10;;
44694;SDS011;32845;59.422;17.930;2024-03-25T03:31:01;2.70;;;1.17;;
44694;SDS011;32845;59.422;17.930;2024-03-25T03:35:34;1.08;;;0.90;;
44694;SDS011;32845;59.422;17.930;2024-03-25T03:40:05;3.28;;;1.45;;
44694;SDS011;32845;59.422;17.930;2024-03-25T03:44:36;2.17;;;0.95;;
44694;SDS011;32845;59.422;17.930;2024-03-25T03:49:07;6.63;;;1.02;;
44694;SDS011;32845;59.422;17.930;2024-03-25T03:53:37;2.53;;;0.98;;
44694;SDS011;32845;59.422;17.930;2024-03-25T03:58:08;2.28;;;0.98;;
44694;SDS011;32845;59.422;17.930;2024-03-25T04:02:38;2.10;;;0.95;;
44694;SDS011;32845;59.422;17.930;2024-03-25T04:07:09;1.92;;;1.25;;
44694;SDS011;32845;59.422;17.930;2024-03-25T04:11:40;1.90;;;0.70;;
44694;SDS011;32845;59.422;17.930;2024-03-25T04:16:10;2.25;;;1.10;;
44694;SDS011;32845;59.422;17.930;2024-03-25T04:20:41;3.33;;;1.20;;
44694;SDS011;32845;59.422;17.930;2024-03-25T04:25:12;2.40;;;1.20;;
44694;SDS011;32845;59.422;17.930;2024-03-25T04:29:46;1.35;;;1.10;;
44694;SDS011;32845;59.422;17.930;2024-03-25T04:34:17;4.35;;;1.25;;
44694;SDS011;32845;59.422;17.930;2024-03-25T04:38:47;4.25;;;1.50;;
44694;SDS011;32845;59.422;17.930;2024-03-25T04:43:18;1.58;;;1.10;;
44694;SDS011;32845;59.422;17.930;2024-03-25T04:47:48;2.05;;;1.02;;
44694;SDS011;32845;59.422;17.930;2024-03-25T04:52:19;1.85;;;1.10;;
44694;SDS011;32845;59.422;17.930;2024-03-25T04:56:53;2.08;;;1.10;;
44694;SDS011;32845;59.422;17.930;2024-03-25T05:01:23;1.50;;;0.95;;
44694;SDS011;32845;59.422;17.930;2024-03-25T05:05:54;1.50;;;1.02;;
44694;SDS011;32845;59.422;17.930;2024-03-25T05:10:25;3.50;;;1.10;;
44694;SDS011;32845;59.422;17.930;2024-03-25T05:15:03;1.90;;;0.90;;
44694;SDS011;32845;59.422;17.930;2024-03-25T05:19:34;4.20;;;0.90;;
44694;SDS011;32845;59.422;17.930;2024-03-25T05:24:05;3.97;;;1.00;;
44694;SDS011;32845;59.422;17.930;2024-03-25T05:28:35;1.52;;;0.90;;
44694;SDS011;32845;59.422;17.930;2024-03-25T05:33:06;4.43;;;1.27;;
44694;SDS011;32845;59.422;17.930;2024-03-25T05:37:37;1.92;;;1.10;;
44694;SDS011;32845;59.422;17.930;2024-03-25T05:42:07;2.40;;;1.10;;
44694;SDS011;32845;59.422;17.930;2024-03-25T05:46:38;2.13;;;1.42;;
44694;SDS011;32845;59.422;17.930;2024-03-25T05:51:09;1.88;;;1.20;;
44694;SDS011;32845;59.422;17.930;2024-03-25T05:55:40;4.53;;;1.45;;
44694;SDS011;32845;59.422;17.930;2024-03-25T06:00:11;2.55;;;1.30;;
44694;SDS011;32845;59.422;17.930;2024-03-25T06:04:43;2.22;;;1.33;;
44694;SDS011;32845;59.422;17.930;2024-03-25T06:09:14;2.72;;;1.20;;
44694;SDS011;32845;59.422;17.930;2024-03-25T06:13:47;6.28;;;1.08;;
44694;SDS011;32845;59.422;17.930;2024-03-25T06:18:18;3.47;;;1.85;;
44694;SDS011;32845;59.422;17.930;2024-03-25T06:22:49;4.30;;;1.65;;
44694;SDS011;32845;59.422;17.930;2024-03-25T06:27:20;2.30;;;1.33;;
44694;SDS011;32845;59.422;17.930;2024-03-25T06:31:51;3.95;;;1.50;;
44694;SDS011;32845;59.422;17.930;2024-03-25T06:36:41;4.07;;;1.40;;
44694;SDS011;32845;59.422;17.930;2024-03-25T06:41:11;5.15;;;1.10;;
44694;SDS011;32845;59.422;17.930;2024-03-25T06:45:42;7.63;;;1.40;;
44694;SDS011;32845;59.422;17.930;2024-03-25T06:50:13;8.57;;;1.50;;
44694;SDS011;32845;59.422;17.930;2024-03-25T06:54:43;2.85;;;1.42;;
44694;SDS011;32845;59.422;17.930;2024-03-25T06:59:14;3.45;;;1.20;;
44694;SDS011;32845;59.422;17.930;2024-03-25T07:03:44;4.07;;;1.52;;
44694;SDS011;32845;59.422;17.930;2024-03-25T07:08:15;2.95;;;1.50;;
44694;SDS011;32845;59.422;17.930;2024-03-25T07:12:46;5.20;;;1.30;;
44694;SDS011;32845;59.422;17.930;2024-03-25T07:17:16;6.30;;;1.38;;
44694;SDS011;32845;59.422;17.930;2024-03-25T07:21:47;2.83;;;1.25;;
44694;SDS011;32845;59.422;17.930;2024-03-25T07:26:17;3.97;;;1.35;;
44694;SDS011;32845;59.422;17.930;2024-03-25T07:30:49;9.90;;;1.70;;
44694;SDS011;32845;59.422;17.930;2024-03-25T07:35:20;15.00;;;1.13;;
44694;SDS011;32845;59.422;17.930;2024-03-25T07:39:51;2.05;;;1.15;;
44694;SDS011;32845;59.422;17.930;2024-03-25T07:44:22;6.70;;;1.13;;
44694;SDS011;32845;59.422;17.930;2024-03-25T07:48:53;4.82;;;1.25;;
44694;SDS011;32845;59.422;17.930;2024-03-25T07:53:24;12.27;;;1.40;;
44694;SDS011;32845;59.422;17.930;2024-03-25T07:57:54;2.72;;;1.10;;
44694;SDS011;32845;59.422;17.930;2024-03-25T08:02:25;9.13;;;1.02;;
44694;SDS011;32845;59.422;17.930;2024-03-25T08:06:55;1.85;;;1.02;;
44694;SDS011;32845;59.422;17.930;2024-03-25T08:11:26;3.22;;;0.98;;
44694;SDS011;32845;59.422;17.930;2024-03-25T08:15:57;6.78;;;1.15;;
44694;SDS011;32845;59.422;17.930;2024-03-25T08:20:27;2.80;;;1.17;;
44694;SDS011;32845;59.422;17.930;2024-03-25T08:25:03;2.83;;;1.15;;
44694;SDS011;32845;59.422;17.930;2024-03-25T08:29:34;4.43;;;1.08;;
44694;SDS011;32845;59.422;17.930;2024-03-25T08:34:05;1.48;;;0.93;;
44694;SDS011;32845;59.422;17.930;2024-03-25T08:38:37;6.03;;;0.95;;
44694;SDS011;32845;59.422;17.930;2024-03-25T08:43:07;5.20;;;1.05;;
44694;SDS011;32845;59.422;17.930;2024-03-25T08:47:38;2.45;;;1.00;;
44694;SDS011;32845;59.422;17.930;2024-03-25T08:52:10;2.78;;;1.20;;
44694;SDS011;32845;59.422;17.930;2024-03-25T08:56:41;10.30;;;1.08;;
44694;SDS011;32845;59.422;17.930;2024-03-25T09:01:11;3.88;;;1.35;;
44694;SDS011;32845;59.422;17.930;2024-03-25T09:05:44;2.33;;;0.80;;
44694;SDS011;32845;59.422;17.930;2024-03-25T09:10:15;3.67;;;1.10;;
44694;SDS011;32845;59.422;17.930;2024-03-25T09:15:05;3.13;;;0.95;;
44694;SDS011;32845;59.422;17.930;2024-03-25T09:19:36;3.25;;;0.90;;
44694;SDS011;32845;59.422;17.930;2024-03-25T09:24:06;3.65;;;1.10;;
44694;SDS011;32845;59.422;17.930;2024-03-25T09:28:39;5.85;;;1.02;;
44694;SDS011;32845;59.422;17.930;2024-03-25T09:33:10;1.50;;;0.93;;
44694;SDS011;32845;59.422;17.930;2024-03-25T09:37:40;4.00;;;0.93;;
44694;SDS011;32845;59.422;17.930;2024-03-25T09:42:12;2.03;;;0.75;;
44694;SDS011;32845;59.422;17.930;2024-03-25T09:46:45;4.40;;;1.05;;
44694;SDS011;32845;59.422;17.930;2024-03-25T09:51:16;2.35;;;0.80;;
44694;SDS011;32845;59.422;17.930;2024-03-25T09:55:47;3.13;;;0.80;;
44694;SDS011;32845;59.422;17.930;2024-03-25T10:00:17;1.38;;;0.80;;
44694;SDS011;32845;59.422;17.930;2024-03-25T10:04:48;3.72;;;0.80;;
44694;SDS011;32845;59.422;17.930;2024-03-25T10:09:22;1.52;;;0.73;;
44694;SDS011;32845;59.422;17.930;2024-03-25T10:13:53;3.13;;;1.02;;
44694;SDS011;32845;59.422;17.930;2024-03-25T10:18:23;2.47;;;0.82;;
44694;SDS011;32845;59.422;17.930;2024-03-25T10:22:54;0.93;;;0.60;;
44694;SDS011;32845;59.422;17.930;2024-03-25T10:27:24;4.85;;;1.20;;
44694;SDS011;32845;59.422;17.930;2024-03-25T10:31:58;4.35;;;1.25;;
44694;SDS011;32845;59.422;17.930;2024-03-25T10:36:29;4.68;;;1.00;;
44694;SDS011;32845;59.422;17.930;2024-03-25T10:41:00;4.88;;;0.80;;
44694;SDS011;32845;59.422;17.930;2024-03-25T10:45:33;18.42;;;1.00;;
44694;SDS011;32845;59.422;17.930;2024-03-25T10:50:15;8.73;;;1.00;;
44694;SDS011;32845;59.422;17.930;2024-03-25T10:54:50;3.10;;;0.90;;
44694;SDS011;32845;59.422;17.930;2024-03-25T10:59:21;4.40;;;1.25;;
44694;SDS011;32845;59.422;17.930;2024-03-25T11:03:54;9.05;;;1.10;;
44694;SDS011;32845;59.422;17.930;2024-03-25T11:08:29;1.90;;;0.80;;
44694;SDS011;32845;59.422;17.930;2024-03-25T11:13:01;2.42;;;0.98;;
44694;SDS011;32845;59.422;17.930;2024-03-25T11:17:32;3.10;;;1.08;;
44694;SDS011;32845;59.422;17.930;2024-03-25T11:22:09;3.65;;;0.75;;
44694;SDS011;32845;59.422;17.930;2024-03-25T11:26:41;3.47;;;1.10;;
44694;SDS011;32845;59.422;17.930;2024-03-25T11:31:12;2.67;;;1.13;;
44694;SDS011;32845;59.422;17.930;2024-03-25T11:35:43;3.80;;;1.10;;
44694;SDS011;32845;59.422;17.930;2024-03-25T11:40:14;2.95;;;1.10;;
44694;SDS011;32845;59.422;17.930;2024-03-25T11:44:45;6.07;;;1.02;;
44694;SDS011;32845;59.422;17.930;2024-03-25T11:49:16;9.32;;;1.13;;
44694;SDS011;32845;59.422;17.930;2024-03-25T11:53:49;2.47;;;1.25;;
44694;SDS011;32845;59.422;17.930;2024-03-25T11:58:20;2.30;;;1.08;;
44694;SDS011;32845;59.422;17.930;2024-03-25T12:02:50;2.30;;;0.90;;
44694;SDS011;32845;59.422;17.930;2024-03-25T12:07:22;3.13;;;1.10;;
44694;SDS011;32845;59.422;17.930;2024-03-25T12:11:53;1.90;;;1.17;;
44694;SDS011;32845;59.422;17.930;2024-03-25T12:16:25;2.88;;;1.40;;
44694;SDS011;32845;59.422;17.930;2024-03-25T12:20:56;5.60;;;1.60;;
44694;SDS011;32845;59.422;17.930;2024-03-25T12:25:27;5.18;;;1.13;;
44694;SDS011;32845;59.422;17.930;2024-03-25T12:34:36;1.80;;;1.10;;
44694;SDS011;32845;59.422;17.930;2024-03-25T12:39:07;4.05;;;1.20;;
44694;SDS011;32845;59.422;17.930;2024-03-25T12:43:45;5.38;;;1.00;;
44694;SDS011;32845;59.422;17.930;2024-03-25T12:48:17;3.65;;;1.20;;
44694;SDS011;32845;59.422;17.930;2024-03-25T12:52:47;5.60;;;1.50;;
44694;SDS011;32845;59.422;17.930;2024-03-25T12:57:18;4.18;;;1.20;;
44694;SDS011;32845;59.422;17.930;2024-03-25T13:01:49;5.13;;;1.42;;
44694;SDS011;32845;59.422;17.930;2024-03-25T13:06:21;2.95;;;1.00;;
44694;SDS011;32845;59.422;17.930;2024-03-25T13:10:51;5.40;;;1.20;;
44694;SDS011;32845;59.422;17.930;2024-03-25T13:15:22;7.30;;;1.10;;
44694;SDS011;32845;59.422;17.930;2024-03-25T13:19:53;8.90;;;1.20;;
44694;SDS011;32845;59.422;17.930;2024-03-25T13:24:23;2.70;;;1.05;;
44694;SDS011;32845;59.422;17.930;2024-03-25T13:28:54;3.95;;;1.10;;
44694;SDS011;32845;59.422;17.930;2024-03-25T13:33:24;9.30;;;1.42;;
44694;SDS011;32845;59.422;17.930;2024-03-25T13:37:55;4.70;;;1.17;;
44694;SDS011;32845;59.422;17.930;2024-03-25T13:42:26;7.35;;;1.35;;
44694;SDS011;32845;59.422;17.930;2024-03-25T13:46:56;6.55;;;0.82;;
44694;SDS011;32845;59.422;17.930;2024-03-25T13:51:27;1.67;;;0.82;;
44694;SDS011;32845;59.422;17.930;2024-03-25T13:55:58;6.03;;;1.25;;
44694;SDS011;32845;59.422;17.930;2024-03-25T14:00:30;4.15;;;1.00;;
44694;SDS011;32845;59.422;17.930;2024-03-25T14:05:03;5.55;;;1.00;;
44694;SDS011;32845;59.422;17.930;2024-03-25T14:09:34;4.63;;;1.05;;
44694;SDS011;32845;59.422;17.930;2024-03-25T14:14:05;6.15;;;1.17;;
44694;SDS011;32845;59.422;17.930;2024-03-25T14:18:36;5.18;;;1.13;;
44694;SDS011;32845;59.422;17.930;2024-03-25T14:23:06;14.10;;;1.10;;
44694;SDS011;32845;59.422;17.930;2024-03-25T14:27:37;3.28;;;0.98;;
44694;SDS011;32845;59.422;17.930;2024-03-25T14:32:08;5.78;;;1.08;;
44694;SDS011;32845;59.422;17.930;2024-03-25T14:36:38;4.57;;;0.93;;
44694;SDS011;32845;59.422;17.930;2024-03-25T14:41:11;3.85;;;1.20;;
44694;SDS011;32845;59.422;17.930;2024-03-25T14:45:42;14.10;;;1.63;;
44694;SDS011;32845;59.422;17.930;2024-03-25T14:50:12;8.93;;;1.70;;
44694;SDS011;32845;59.422;17.930;2024-03-25T14:54:43;5.38;;;1.20;;
44694;SDS011;32845;59.422;17.930;2024-03-25T14:59:14;5.18;;;1.52;;
44694;SDS011;32845;59.422;17.930;2024-03-25T15:03:44;12.15;;;1.30;;
44694;SDS011;32845;59.422;17.930;2024-03-25T15:08:15;11.65;;;1.33;;
44694;SDS011;32845;59.422;17.930;2024-03-25T15:12:46;1.55;;;1.00;;
44694;SDS011;32845;59.422;17.930;2024-03-25T15:17:17;4.18;;;1.10;;
44694;SDS011;32845;59.422;17.930;2024-03-25T15:21:47;5.57;;;1.27;;
44694;SDS011;32845;59.422;17.930;2024-03-25T15:26:18;2.75;;;1.20;;
44694;SDS011;32845;59.422;17.930;2024-03-25T15:30:49;4.00;;;1.30;;
44694;SDS011;32845;59.422;17.930;2024-03-25T15:35:21;6.60;;;1.33;;
44694;SDS011;32845;59.422;17.930;2024-03-25T15:39:51;2.50;;;1.02;;
44694;SDS011;32845;59.422;17.930;2024-03-25T15:44:22;8.80;;;1.15;;
44694;SDS011;32845;59.422;17.930;2024-03-25T15:48:52;8.52;;;1.20;;
44694;SDS011;32845;59.422;17.930;2024-03-25T15:53:23;3.45;;;1.75;;
44694;SDS011;32845;59.422;17.930;2024-03-25T15:57:54;14.98;;;2.10;;
44694;SDS011;32845;59.422;17.930;2024-03-25T16:02:24;9.40;;;1.45;;
44694;SDS011;32845;59.422;17.930;2024-03-25T16:06:55;6.60;;;1.10;;
44694;SDS011;32845;59.422;17.930;2024-03-25T16:11:26;4.32;;;1.08;;
44694;SDS011;32845;59.422;17.930;2024-03-25T16:16:03;13.23;;;1.88;;
44694;SDS011;32845;59.422;17.930;2024-03-25T16:20:35;3.10;;;1.30;;
44694;SDS011;32845;59.422;17.930;2024-03-25T16:25:06;6.65;;;1.27;;
44694;SDS011;32845;59.422;17.930;2024-03-25T16:29:38;17.17;;;1.50;;
44694;SDS011;32845;59.422;17.930;2024-03-25T16:34:09;12.60;;;1.83;;
44694;SDS011;32845;59.422;17.930;2024-03-25T16:38:41;17.23;;;1.38;;
44694;SDS011;32845;59.422;17.930;2024-03-25T16:43:12;7.80;;;1.65;;
44694;SDS011;32845;59.422;17.930;2024-03-25T16:47:42;5.03;;;1.17;;
44694;SDS011;32845;59.422;17.930;2024-03-25T16:52:13;5.47;;;1.02;;
44694;SDS011;32845;59.422;17.930;2024-03-25T16:56:43;7.93;;;1.52;;
44694;SDS011;32845;59.422;17.930;2024-03-25T17:01:14;7.10;;;1.58;;
44694;SDS011;32845;59.422;17.930;2024-03-25T17:05:45;6.93;;;1.83;;
44694;SDS011;32845;59.422;17.930;2024-03-25T17:10:19;6.10;;;1.60;;
44694;SDS011;32845;59.422;17.930;2024-03-25T17:14:51;7.20;;;1.60;;
44694;SDS011;32845;59.422;17.930;2024-03-25T17:19:22;8.32;;;1.60;;
44694;SDS011;32845;59.422;17.930;2024-03-25T17:23:52;4.85;;;1.40;;
44694;SDS011;32845;59.422;17.930;2024-03-25T17:28:23;7.75;;;1.63;;
44694;SDS011;32845;59.422;17.930;2024-03-25T17:32:54;10.18;;;1.52;;
44694;SDS011;32845;59.422;17.930;2024-03-25T17:37:24;8.13;;;1.92;;
44694;SDS011;32845;59.422;17.930;2024-03-25T17:41:55;5.63;;;1.60;;
44694;SDS011;32845;59.422;17.930;2024-03-25T17:46:26;5.85;;;1.38;;
44694;SDS011;32845;59.422;17.930;2024-03-25T17:50:58;10.43;;;2.90;;
44694;SDS011;32845;59.422;17.930;2024-03-25T17:55:29;4.00;;;1.42;;
44694;SDS011;32845;59.422;17.930;2024-03-25T18:00:00;5.20;;;1.40;;
44694;SDS011;32845;59.422;17.930;2024-03-25T18:04:31;4.10;;;1.10;;
44694;SDS011;32845;59.422;17.930;2024-03-25T18:09:01;4.30;;;1.33;;
44694;SDS011;32845;59.422;17.930;2024-03-25T18:13:32;9.45;;;1.55;;
44694;SDS011;32845;59.422;17.930;2024-03-25T18:18:03;8.20;;;1.73;;
44694;SDS011;32845;59.422;17.930;2024-03-25T18:22:33;4.30;;;2.00;;
44694;SDS011;32845;59.422;17.930;2024-03-25T18:27:04;5.35;;;1.88;;
44694;SDS011;32845;59.422;17.930;2024-03-25T18:31:34;5.00;;;1.63;;
44694;SDS011;32845;59.422;17.930;2024-03-25T18:36:06;4.47;;;1.80;;
44694;SDS011;32845;59.422;17.930;2024-03-25T18:40:37;8.85;;;1.80;;
44694;SDS011;32845;59.422;17.930;2024-03-25T18:45:08;4.13;;;1.50;;
44694;SDS011;32845;59.422;17.930;2024-03-25T18:49:42;6.72;;;1.40;;
44694;SDS011;32845;59.422;17.930;2024-03-25T18:54:13;4.32;;;1.35;;
44694;SDS011;32845;59.422;17.930;2024-03-25T18:58:43;5.47;;;2.13;;
44694;SDS011;32845;59.422;17.930;2024-03-25T19:03:14;9.80;;;1.83;;
44694;SDS011;32845;59.422;17.930;2024-03-25T19:07:44;3.53;;;1.60;;
44694;SDS011;32845;59.422;17.930;2024-03-25T19:12:15;5.63;;;2.10;;
44694;SDS011;32845;59.422;17.930;2024-03-25T19:16:46;3.08;;;1.63;;
44694;SDS011;32845;59.422;17.930;2024-03-25T19:21:16;5.78;;;2.30;;
44694;SDS011;32845;59.422;17.930;2024-03-25T19:25:47;9.07;;;2.00;;
44694;SDS011;32845;59.422;17.930;2024-03-25T19:30:17;6.13;;;2.08;;
44694;SDS011;32845;59.422;17.930;2024-03-25T19:34:48;4.40;;;2.08;;
44694;SDS011;32845;59.422;17.930;2024-03-25T19:39:19;6.22;;;2.67;;
44694;SDS011;32845;59.422;17.930;2024-03-25T19:43:50;9.05;;;3.03;;
44694;SDS011;32845;59.422;17.930;2024-03-25T19:48:21;9.73;;;2.33;;
44694;SDS011;32845;59.422;17.930;2024-03-25T19:52:51;7.90;;;2.45;;
44694;SDS011;32845;59.422;17.930;2024-03-25T19:57:22;8.93;;;3.05;;
44694;SDS011;32845;59.422;17.930;2024-03-25T20:01:53;5.32;;;1.90;;
44694;SDS011;32845;59.422;17.930;2024-03-25T20:06:24;6.82;;;2.00;;
44694;SDS011;32845;59.422;17.930;2024-03-25T20:10:54;14.10;;;2.30;;
44694;SDS011;32845;59.422;17.930;2024-03-25T20:15:25;6.78;;;2.50;;
44694;SDS011;32845;59.422;17.930;2024-03-25T20:19:56;6.00;;;2.40;;
44694;SDS011;32845;59.422;17.930;2024-03-25T20:24:27;4.95;;;2.17;;
44694;SDS011;32845;59.422;17.930;2024-03-25T20:28:59;5.05;;;1.95;;
44694;SDS011;32845;59.422;17.930;2024-03-25T20:33:29;5.13;;;1.90;;
44694;SDS011;32845;59.422;17.930;2024-03-25T20:38:01;3.55;;;1.58;;
44694;SDS011;32845;59.422;17.930;2024-03-25T20:42:32;5.00;;;1.90;;
44694;SDS011;32845;59.422;17.930;2024-03-25T20:47:03;5.68;;;2.20;;
44694;SDS011;32845;59.422;17.930;2024-03-25T20:51:34;4.32;;;2.05;;
44694;SDS011;32845;59.422;17.930;2024-03-25T20:56:04;4.97;;;2.17;;
44694;SDS011;32845;59.422;17.930;2024-03-25T21:00:35;14.18;;;2.03;;
44694;SDS011;32845;59.422;17.930;2024-03-25T21:05:06;4.47;;;2.40;;
44694;SDS011;32845;59.422;17.930;2024-03-25T21:09:39;5.63;;;2.45;;
44694;SDS011;32845;59.422;17.930;2024-03-25T21:14:09;4.05;;;1.63;;
44694;SDS011;32845;59.422;17.930;2024-03-25T21:18:40;11.63;;;2.70;;
44694;SDS011;32845;59.422;17.930;2024-03-25T21:23:10;7.22;;;2.30;;
44694;SDS011;32845;59.422;17.930;2024-03-25T21:27:41;8.02;;;2.88;;
44694;SDS011;32845;59.422;17.930;2024-03-25T21:32:11;5.25;;;2.50;;
44694;SDS011;32845;59.422;17.930;2024-03-25T21:36:42;5.30;;;2.83;;
44694;SDS011;32845;59.422;17.930;2024-03-25T21:41:13;6.57;;;2.42;;
44694;SDS011;32845;59.422;17.930;2024-03-25T21:45:44;4.43;;;2.20;;
44694;SDS011;32845;59.422;17.930;2024-03-25T21:50:14;8.02;;;2.50;;
44694;SDS011;32845;59.422;17.930;2024-03-25T21:54:45;7.20;;;2.97;;
44694;SDS011;32845;59.422;17.930;2024-03-25T21:59:16;10.70;;;3.95;;
44694;SDS011;32845;59.422;17.930;2024-03-25T22:03:48;7.00;;;3.70;;
44694;SDS011;32845;59.422;17.930;2024-03-25T22:08:19;10.05;;;2.97;;
44694;SDS011;32845;59.422;17.930;2024-03-25T22:12:49;5.45;;;3.10;;
44694;SDS011;32845;59.422;17.930;2024-03-25T22:17:20;5.38;;;2.85;;
44694;SDS011;32845;59.422;17.930;2024-03-25T22:21:50;9.65;;;3.13;;
44694;SDS011;32845;59.422;17.930;2024-03-25T22:26:22;7.25;;;2.97;;
44694;SDS011;32845;59.422;17.930;2024-03-25T22:30:59;7.20;;;2.50;;
44694;SDS011;32845;59.422;17.930;2024-03-25T22:35:30;6.28;;;2.50;;
44694;SDS011;32845;59.422;17.930;2024-03-25T22:40:01;5.60;;;2.30;;
44694;SDS011;32845;59.422;17.930;2024-03-25T22:44:32;3.50;;;2.00;;
44694;SDS011;32845;59.422;17.930;2024-03-25T22:49:02;4.80;;;2.15;;
44694;SDS011;32845;59.422;17.930;2024-03-25T22:53:33;3.35;;;1.95;;
44694;SDS011;32845;59.422;17.930;2024-03-25T22:58:04;3.25;;;1.83;;
44694;SDS011;32845;59.422;17.930;2024-03-25T23:02:35;5.97;;;1.80;;
44694;SDS011;32845;59.422;17.930;2024-03-25T23:07:06;3.20;;;1.67;;
44694;SDS011;32845;59.422;17.930;2024-03-25T23:11:36;4.50;;;2.10;;
44694;SDS011;32845;59.422;17.930;2024-03-25T23:16:07;5.05;;;2.20;;
44694;SDS011;32845;59.422;17.930;2024-03-25T23:20:39;6.00;;;1.95;;
44694;SDS011;32845;59.422;17.930;2024-03-25T23:25:11;3.95;;;2.15;;
44694;SDS011;32845;59.422;17.930;2024-03-25T23:29:41;3.60;;;2.10;;
44694;SDS011;32845;59.422;17.930;2024-03-25T23:34:12;3.80;;;2.30;;
44694;SDS011;32845;59.422;17.930;2024-03-25T23:38:42;8.35;;;2.22;;
44694;SDS011;32845;59.422;17.930;2024-03-25T23:43:13;4.03;;;2.20;;
44694;SDS011;32845;59.422;17.930;2024-03-25T23:47:43;6.93;;;2.25;;
44694;SDS011;32845;59.422;17.930;2024-03-25T23:52:14;4.85;;;2.17;;
44694;SDS011;32845;59.422;17.930;2024-03-25T23:56:44;2.90;;;2.03;;
